This is the latest recevied weather packets stored in our database for station/object N7IGG. If no packets are shown the sender has not sent any weather packets the latest 1 day(s).
| Time | Temp. | Humidity | Pressure | Rain* | Wind** | Luminosity | Snow |
|---|---|---|---|---|---|---|---|
| 1777976415 | 12.22° C | 92% | 1013.8 hPa | 0 mm | 0.45 m/s, 180° | 0 W/m² | - |
| 1777976114 | 12.22° C | 92% | 1013.8 hPa | 0 mm | 1.34 m/s, 167° | 0 W/m² | - |
| 1777975809 | 12.22° C | 92% | 1013.6 hPa | 0 mm | 1.79 m/s, 179° | 0 W/m² | - |
| 1777975507 | 12.22° C | 92% | 1013.8 hPa | 0 mm | 1.79 m/s, 191° | 0 W/m² | - |
| 1777975204 | 12.22° C | 92% | 1013.7 hPa | 0 mm | 2.24 m/s, 186° | 0 W/m² | - |
| 1777974900 | 12.22° C | 92% | 1013.6 hPa | 0 mm | 2.68 m/s, 179° | 0 W/m² | - |
| 1777974595 | 12.22° C | 92% | 1013.5 hPa | 0 mm | 3.13 m/s, 217° | 0 W/m² | - |
| 1777974293 | 12.22° C | 92% | 1013.5 hPa | 0 mm | 1.34 m/s, 150° | 0 W/m² | - |
| 1777973989 | 12.22° C | 92% | 1013.5 hPa | 0 mm | 1.34 m/s, 161° | 0 W/m² | - |
| 1777973686 | 12.22° C | 92% | 1013.4 hPa | 0 mm | 2.68 m/s, 192° | 0 W/m² | - |
| 1777973383 | 12.22° C | 92% | 1013.5 hPa | 0 mm | 1.34 m/s, 182° | 0 W/m² | - |
| 1777973080 | 12.22° C | 92% | 1013.5 hPa | 0 mm | 4.02 m/s, 213° | 0 W/m² | - |
| 1777972778 | 12.22° C | 92% | 1013.5 hPa | 0 mm | 0.89 m/s, 124° | 0 W/m² | - |
| 1777972475 | 12.22° C | 92% | 1013.5 hPa | 0 mm | 1.79 m/s, 163° | 0 W/m² | - |
| 1777972173 | 12.22° C | 91% | 1013.3 hPa | 0 mm | 2.68 m/s, 202° | 0 W/m² | - |
| 1777971871 | 12.22° C | 91% | 1013.3 hPa | 0 mm | 3.58 m/s, 198° | 0 W/m² | - |
| 1777971568 | 12.22° C | 91% | 1013.2 hPa | 0 mm | 0.89 m/s, 132° | 0 W/m² | - |
| 1777971266 | 12.22° C | 91% | 1013.2 hPa | 0 mm | 0.89 m/s, 180° | 0 W/m² | - |
| 1777970964 | 12.22° C | 91% | 1013.1 hPa | 0 mm | 2.24 m/s, 180° | 0 W/m² | - |
| 1777970662 | 12.22° C | 91% | 1013.1 hPa | 0 mm | 0.89 m/s, 159° | 0 W/m² | - |
| 1777970360 | 12.22° C | 91% | 1013.1 hPa | 0 mm | 0.89 m/s, 127° | 0 W/m² | - |
| 1777970057 | 12.22° C | 91% | 1013 hPa | 0 mm | 2.68 m/s, 207° | 0 W/m² | - |
| 1777969753 | 12.22° C | 91% | 1012.9 hPa | 0 mm | 0.89 m/s, 146° | 0 W/m² | - |
| 1777969449 | 12.78° C | 91% | 1012.9 hPa | 0 mm | 0.45 m/s, 180° | 0 W/m² | - |
| 1777969146 | 12.78° C | 91% | 1013.1 hPa | 0 mm | 2.68 m/s, 198° | 0 W/m² | - |
* Rain latest hour (hover to see other rain measurements)
** Current wind speed in m/s (hover to see current wind gust speed)